Time;durP1;ratioP1;P1;durP2;ratioP2;P2;SDS_P1;SDS_P2;PMS_P1;PMS_P2;Temp;Humidity;BMP_temperature;BMP_pressure;BME280_temperature;BME280_humidity;BME280_pressure;Samples;Min_cycle;Max_cycle;Signal;HPM_P1;HPM_P2
2022/07/10 00:00:35;;;;;;;4.65;1.00;;;;;;;;;;5040407;28;20406;-85
2022/07/10 00:03:03;;;;;;;3.00;0.63;;;;;;;;;;5040159;28;20075;-86
2022/07/10 00:05:31;;;;;;;1.83;0.55;;;;;;;;;;5040877;28;20061;-86
2022/07/10 00:07:58;;;;;;;1.65;0.68;;;;;;;;;;5059221;28;20053;-86
2022/07/10 00:10:26;;;;;;;2.05;0.80;;;;;;;;;;5058716;28;20061;-86
2022/07/10 00:12:53;;;;;;;3.05;0.77;;;;;;;;;;5040773;28;20076;-85
2022/07/10 00:15:21;;;;;;;1.88;0.50;;;;;;;;;;5058682;28;20103;-86
2022/07/10 00:17:49;;;;;;;4.95;0.68;;;;;;;;;;5059386;28;20049;-86
2022/07/10 00:20:16;;;;;;;5.80;0.90;;;;;;;;;;5041203;28;20053;-86
2022/07/10 00:22:44;;;;;;;4.30;0.57;;;;;;;;;;5041606;28;20490;-86
2022/07/10 00:25:12;;;;;;;6.57;0.80;;;;;;;;;;5058062;28;20561;-86
2022/07/10 00:27:39;;;;;;;1.38;0.60;;;;;;;;;;5041648;28;20482;-86
2022/07/10 00:30:07;;;;;;;5.85;0.63;;;;;;;;;;5058856;28;20118;-86
2022/07/10 00:32:34;;;;;;;2.15;0.80;;;;;;;;;;5042431;28;20072;-86
2022/07/10 00:35:04;;;;;;;2.45;0.60;;;;;;;;;;5040952;28;20065;-86
2022/07/10 00:37:31;;;;;;;2.13;0.63;;;;;;;;;;5041561;28;20076;-85
2022/07/10 00:39:59;;;;;;;3.10;0.65;;;;;;;;;;5059814;28;20415;-86
2022/07/10 00:42:27;;;;;;;0.68;0.40;;;;;;;;;;5041275;28;20103;-86
2022/07/10 00:44:54;;;;;;;2.42;0.70;;;;;;;;;;5041102;28;20056;-86
2022/07/10 00:47:21;;;;;;;3.75;0.88;;;;;;;;;;5058142;28;20056;-86
2022/07/10 00:49:49;;;;;;;3.95;0.75;;;;;;;;;;5041423;28;20061;-86
2022/07/10 00:52:17;;;;;;;3.13;0.70;;;;;;;;;;5041240;28;20561;-88
2022/07/10 00:54:50;;;;;;;4.32;0.80;;;;;;;;;;5039766;28;20406;-86
2022/07/10 00:57:18;;;;;;;3.88;0.80;;;;;;;;;;5041214;28;20059;-84
2022/07/10 00:59:45;;;;;;;3.60;0.70;;;;;;;;;;5042160;28;20410;-86
2022/07/10 01:02:13;;;;;;;3.08;0.80;;;;;;;;;;5041493;28;20103;-86
2022/07/10 01:04:40;;;;;;;4.22;0.75;;;;;;;;;;5038964;28;20049;-86
2022/07/10 01:07:07;;;;;;;4.50;0.68;;;;;;;;;;5038462;28;20083;-86
2022/07/10 01:09:35;;;;;;;3.55;0.70;;;;;;;;;;5037810;28;20462;-86
2022/07/10 01:12:02;;;;;;;6.70;0.75;;;;;;;;;;5056353;28;20104;-86
2022/07/10 01:14:30;;;;;;;3.55;0.75;;;;;;;;;;5038248;28;20465;-86
2022/07/10 01:16:58;;;;;;;4.68;1.23;;;;;;;;;;5055684;28;20071;-85
2022/07/10 01:19:25;;;;;;;9.23;1.67;;;;;;;;;;5055476;28;20111;-86
2022/07/10 01:21:53;;;;;;;4.13;1.48;;;;;;;;;;5037903;28;20049;-86
2022/07/10 01:24:20;;;;;;;3.80;0.93;;;;;;;;;;5045854;23;20108;-83
2022/07/10 01:26:47;;;;;;;5.75;1.00;;;;;;;;;;5039472;28;20049;-84
2022/07/10 01:29:14;;;;;;;4.82;1.30;;;;;;;;;;5039324;28;20045;-83
2022/07/10 01:31:42;;;;;;;5.85;1.27;;;;;;;;;;5058348;28;20053;-83
2022/07/10 01:34:09;;;;;;;2.10;0.93;;;;;;;;;;5038321;28;20049;-84
2022/07/10 01:36:37;;;;;;;3.80;0.90;;;;;;;;;;5038409;28;20494;-83
2022/07/10 01:39:05;;;;;;;3.95;0.90;;;;;;;;;;5032022;22;20137;-85
2022/07/10 01:41:32;;;;;;;4.95;0.82;;;;;;;;;;5019540;28;20068;-86
2022/07/10 01:44:00;;;;;;;4.15;0.73;;;;;;;;;;5019425;28;20054;-86
2022/07/10 01:46:27;;;;;;;2.08;0.52;;;;;;;;;;5014579;28;20050;-87
2022/07/10 01:48:54;;;;;;;6.93;0.85;;;;;;;;;;5000156;28;20046;-87
2022/07/10 01:51:21;;;;;;;5.90;1.10;;;;;;;;;;4998466;28;20570;-87
2022/07/10 01:53:48;;;;;;;5.70;0.63;;;;;;;;;;4999029;28;20046;-86
2022/07/10 01:56:16;;;;;;;3.10;0.70;;;;;;;;;;4995743;28;20050;-86
2022/07/10 01:58:43;;;;;;;3.97;0.63;;;;;;;;;;5000340;28;20081;-85
2022/07/10 02:01:10;;;;;;;2.40;0.70;;;;;;;;;;4998827;28;20416;-86
2022/07/10 02:06:24;;;;;;;2.78;0.40;;;;;;;;;;4996023;28;20447;-86
2022/07/10 02:08:52;;;;;;;3.75;0.77;;;;;;;;;;4994515;28;20396;-86
2022/07/10 02:11:19;;;;;;;3.17;0.60;;;;;;;;;;4994072;28;20540;-86
2022/07/10 02:13:46;;;;;;;3.53;0.57;;;;;;;;;;4994249;28;20388;-86
2022/07/10 02:16:14;;;;;;;3.97;0.75;;;;;;;;;;4994096;28;20050;-86
2022/07/10 02:18:41;;;;;;;3.50;0.88;;;;;;;;;;4995387;28;20410;-86
2022/07/10 02:21:10;;;;;;;5.03;0.70;;;;;;;;;;4994209;28;20097;-86
2022/07/10 02:23:39;;;;;;;1.90;0.50;;;;;;;;;;4994226;28;20109;-86
2022/07/10 02:26:06;;;;;;;2.90;0.60;;;;;;;;;;4993920;28;20050;-86
2022/07/10 02:28:33;;;;;;;4.82;0.82;;;;;;;;;;4994184;28;20105;-86
2022/07/10 02:31:00;;;;;;;2.55;0.82;;;;;;;;;;4993572;28;20085;-87
2022/07/10 02:33:28;;;;;;;2.72;0.65;;;;;;;;;;4994164;28;20066;-86
2022/07/10 02:35:55;;;;;;;2.47;0.70;;;;;;;;;;4993887;28;20050;-87
2022/07/10 02:38:22;;;;;;;3.25;0.70;;;;;;;;;;4993141;28;20054;-87
2022/07/10 02:40:50;;;;;;;4.25;0.60;;;;;;;;;;4993543;28;20050;-86
2022/07/10 02:43:17;;;;;;;4.43;0.75;;;;;;;;;;4993101;28;20096;-86
2022/07/10 02:45:44;;;;;;;1.95;0.68;;;;;;;;;;4993250;28;20054;-86
2022/07/10 02:48:15;;;;;;;2.05;0.82;;;;;;;;;;4992995;28;20104;-86
2022/07/10 02:50:42;;;;;;;4.60;0.82;;;;;;;;;;4993469;28;20470;-86
2022/07/10 02:53:09;;;;;;;2.92;0.90;;;;;;;;;;4993182;28;20554;-86
2022/07/10 02:55:36;;;;;;;3.20;0.80;;;;;;;;;;4993747;28;20400;-87
2022/07/10 02:58:03;;;;;;;18.58;2.97;;;;;;;;;;4993865;28;20066;-86
2022/07/10 03:00:31;;;;;;;10.35;1.80;;;;;;;;;;4993161;28;20054;-86
2022/07/10 03:02:58;;;;;;;3.97;0.82;;;;;;;;;;4993554;28;20051;-86
2022/07/10 03:05:25;;;;;;;4.68;0.70;;;;;;;;;;4993260;28;20461;-86
2022/07/10 03:07:53;;;;;;;1.58;0.70;;;;;;;;;;4993386;28;20054;-86
2022/07/10 03:10:21;;;;;;;3.85;0.90;;;;;;;;;;4993051;28;20120;-86
2022/07/10 03:12:48;;;;;;;5.72;1.02;;;;;;;;;;4993625;28;20050;-87
2022/07/10 03:15:15;;;;;;;2.40;0.70;;;;;;;;;;4994542;28;20054;-86
2022/07/10 03:17:42;;;;;;;2.38;0.55;;;;;;;;;;4993200;28;20053;-87
2022/07/10 03:20:10;;;;;;;1.35;0.60;;;;;;;;;;4993378;28;20419;-87
2022/07/10 03:22:37;;;;;;;2.67;0.70;;;;;;;;;;4993696;28;20106;-87
2022/07/10 03:25:05;;;;;;;1.95;0.52;;;;;;;;;;4993611;28;20054;-87
2022/07/10 03:27:32;;;;;;;1.60;0.60;;;;;;;;;;4993576;28;20093;-86
2022/07/10 03:29:59;;;;;;;3.17;0.70;;;;;;;;;;4993627;28;20043;-86
2022/07/10 03:32:26;;;;;;;4.13;0.95;;;;;;;;;;4992856;28;20086;-87
2022/07/10 03:34:54;;;;;;;3.15;0.50;;;;;;;;;;4993161;28;20047;-86
2022/07/10 03:37:21;;;;;;;3.30;1.02;;;;;;;;;;4994171;28;20042;-87
2022/07/10 03:39:48;;;;;;;4.30;1.38;;;;;;;;;;4993636;28;20086;-86
2022/07/10 03:42:16;;;;;;;1.90;0.57;;;;;;;;;;4993274;28;20046;-86
2022/07/10 03:44:44;;;;;;;4.10;1.08;;;;;;;;;;4993432;28;20125;-86
2022/07/10 03:47:11;;;;;;;5.30;0.75;;;;;;;;;;4992834;28;20105;-86
2022/07/10 03:49:41;;;;;;;5.70;0.65;;;;;;;;;;4993428;28;20443;-86
2022/07/10 03:52:09;;;;;;;2.20;0.77;;;;;;;;;;4992800;28;20550;-85
2022/07/10 03:54:36;;;;;;;4.82;1.00;;;;;;;;;;4994310;28;20058;-86
2022/07/10 03:59:49;;;;;;;3.80;0.82;;;;;;;;;;4993552;28;20050;-86
2022/07/10 04:02:16;;;;;;;3.42;0.50;;;;;;;;;;4992127;28;20495;-86
2022/07/10 04:04:44;;;;;;;4.63;0.70;;;;;;;;;;4985502;28;20538;-85
2022/07/10 04:07:12;;;;;;;3.95;0.77;;;;;;;;;;5042167;23;20056;-84
2022/07/10 04:09:39;;;;;;;2.42;0.80;;;;;;;;;;5076696;28;20076;-84
2022/07/10 04:12:07;;;;;;;3.47;1.10;;;;;;;;;;5076098;28;20072;-84
2022/07/10 04:14:34;;;;;;;2.90;1.33;;;;;;;;;;5075080;28;20049;-84
2022/07/10 04:17:01;;;;;;;4.10;2.10;;;;;;;;;;5073254;28;20416;-83
2022/07/10 04:19:28;;;;;;;7.18;2.30;;;;;;;;;;5076062;28;20045;-84
2022/07/10 04:21:55;;;;;;;5.20;2.38;;;;;;;;;;5066654;22;20057;-87
2022/07/10 04:24:22;;;;;;;4.47;1.30;;;;;;;;;;5052671;28;20463;-87
2022/07/10 04:26:49;;;;;;;8.55;3.53;;;;;;;;;;5044358;28;20052;-87
2022/07/10 04:29:17;;;;;;;4.53;2.22;;;;;;;;;;5020548;28;20483;-87
2022/07/10 04:31:44;;;;;;;6.50;3.50;;;;;;;;;;5019782;28;20046;-86
2022/07/10 04:34:11;;;;;;;7.82;4.75;;;;;;;;;;5018475;28;20053;-85
2022/07/10 04:36:38;;;;;;;6.65;4.40;;;;;;;;;;5018232;28;20049;-86
2022/07/10 04:39:05;;;;;;;5.63;2.83;;;;;;;;;;5018378;28;20073;-87
2022/07/10 04:41:36;;;;;;;7.50;1.48;;;;;;;;;;5018415;28;20103;-85
2022/07/10 04:44:03;;;;;;;6.00;1.00;;;;;;;;;;5018142;28;20053;-89
2022/07/10 04:46:37;;;;;;;6.25;0.77;;;;;;;;;;5019068;28;20396;-85
2022/07/10 04:49:07;;;;;;;18.30;1.73;;;;;;;;;;5020656;28;20049;-87
2022/07/10 04:51:35;;;;;;;16.52;1.80;;;;;;;;;;5019811;28;20503;-87
2022/07/10 04:54:02;;;;;;;4.50;0.98;;;;;;;;;;5020754;28;20045;-86
2022/07/10 04:56:29;;;;;;;2.67;0.80;;;;;;;;;;5023102;28;20410;-87
2022/07/10 04:58:57;;;;;;;1.38;0.70;;;;;;;;;;5023787;28;20046;-85
2022/07/10 05:01:24;;;;;;;4.50;0.90;;;;;;;;;;5023862;28;20123;-87
2022/07/10 05:03:52;;;;;;;4.35;0.70;;;;;;;;;;5020580;28;20060;-86
2022/07/10 05:06:20;;;;;;;3.95;0.65;;;;;;;;;;5022434;28;20049;-86
2022/07/10 05:08:47;;;;;;;5.10;1.05;;;;;;;;;;5025526;28;20053;-86
2022/07/10 05:11:17;;;;;;;4.10;1.35;;;;;;;;;;5023206;28;20049;-86
2022/07/10 05:13:48;;;;;;;3.53;0.70;;;;;;;;;;5023392;28;20124;-86
2022/07/10 05:16:18;;;;;;;2.83;0.75;;;;;;;;;;5021614;28;20059;-85
2022/07/10 05:18:47;;;;;;;6.47;1.08;;;;;;;;;;5023361;28;20049;-87
2022/07/10 05:21:16;;;;;;;4.47;1.02;;;;;;;;;;5021803;28;20506;-86
2022/07/10 05:23:46;;;;;;;4.18;0.90;;;;;;;;;;5013787;28;20494;-86
2022/07/10 05:26:14;;;;;;;2.55;0.70;;;;;;;;;;5022891;28;20053;-85
2022/07/10 05:28:41;;;;;;;2.58;0.70;;;;;;;;;;5018499;28;20104;-84
2022/07/10 05:31:09;;;;;;;3.03;0.60;;;;;;;;;;5019690;28;20046;-85
2022/07/10 05:33:40;;;;;;;3.25;0.70;;;;;;;;;;5026562;28;20115;-86
2022/07/10 05:36:08;;;;;;;5.03;0.93;;;;;;;;;;5020956;28;20046;-83
2022/07/10 05:38:35;;;;;;;2.45;0.63;;;;;;;;;;5038896;28;20076;-85
2022/07/10 05:41:03;;;;;;;2.88;0.65;;;;;;;;;;5025269;28;20053;-85
2022/07/10 05:43:30;;;;;;;4.15;0.50;;;;;;;;;;5020869;28;20049;-85
2022/07/10 05:45:58;;;;;;;3.75;1.10;;;;;;;;;;5021661;28;20494;-85
2022/07/10 05:48:25;;;;;;;9.43;1.30;;;;;;;;;;5025173;28;20104;-85
2022/07/10 05:50:53;;;;;;;3.65;0.90;;;;;;;;;;5024074;28;20145;-85
2022/07/10 05:53:20;;;;;;;3.53;1.00;;;;;;;;;;5047790;28;20045;-85
2022/07/10 05:55:48;;;;;;;0.55;0.50;;;;;;;;;;5047203;28;20053;-85
2022/07/10 05:58:16;;;;;;;2.90;0.80;;;;;;;;;;5042627;28;20049;-85
2022/07/10 06:00:45;;;;;;;4.03;1.10;;;;;;;;;;5018531;28;20054;-85
2022/07/10 06:03:13;;;;;;;4.25;1.00;;;;;;;;;;5018453;28;20045;-84
2022/07/10 06:05:40;;;;;;;1.65;0.57;;;;;;;;;;5019452;28;20107;-85
2022/07/10 06:08:07;;;;;;;1.35;0.95;;;;;;;;;;5038749;28;20049;-86
2022/07/10 06:10:34;;;;;;;5.18;1.02;;;;;;;;;;5039185;28;20049;-84
2022/07/10 06:13:01;;;;;;;4.47;1.10;;;;;;;;;;5019358;28;20049;-85
2022/07/10 06:15:28;;;;;;;2.42;0.95;;;;;;;;;;5020773;28;20103;-85
2022/07/10 06:18:00;;;;;;;4.00;1.23;;;;;;;;;;5017410;28;20041;-84
2022/07/10 06:20:27;;;;;;;4.70;0.90;;;;;;;;;;5017915;28;20091;-84
2022/07/10 06:22:54;;;;;;;4.63;1.30;;;;;;;;;;5017801;28;20045;-84
2022/07/10 06:25:22;;;;;;;5.47;1.17;;;;;;;;;;5017284;28;20052;-84
2022/07/10 06:27:49;;;;;;;5.35;1.23;;;;;;;;;;5017043;28;20081;-84
2022/07/10 06:30:19;;;;;;;11.98;2.00;;;;;;;;;;5034276;28;20068;-83
2022/07/10 06:32:46;;;;;;;6.05;1.30;;;;;;;;;;5016575;28;20050;-84
2022/07/10 06:35:13;;;;;;;3.75;1.10;;;;;;;;;;5018079;28;20060;-84
2022/07/10 06:37:40;;;;;;;3.95;0.90;;;;;;;;;;5017246;28;20050;-84
2022/07/10 06:40:10;;;;;;;4.20;0.82;;;;;;;;;;5018281;28;20045;-83
2022/07/10 06:42:39;;;;;;;7.20;1.30;;;;;;;;;;5018624;28;20486;-84
2022/07/10 06:45:10;;;;;;;5.43;0.98;;;;;;;;;;5022509;28;20049;-85
2022/07/10 06:47:57;;;;;;;4.38;0.90;;;;;;;;;;5018593;28;20076;-85
2022/07/10 06:50:34;;;;;;;11.35;8.00;;;;;;;;;;5017376;28;20450;-84
2022/07/10 06:53:02;;;;;;;14.00;10.02;;;;;;;;;;5018909;28;20056;-85
2022/07/10 06:55:30;;;;;;;5.18;1.35;;;;;;;;;;5036729;28;20049;-85
2022/07/10 06:57:57;;;;;;;6.35;1.00;;;;;;;;;;5021398;28;20052;-84
2022/07/10 07:00:25;;;;;;;3.78;0.80;;;;;;;;;;5020349;28;20049;-84
2022/07/10 07:02:52;;;;;;;4.05;1.00;;;;;;;;;;5020138;28;20057;-85
2022/07/10 07:05:21;;;;;;;4.30;1.25;;;;;;;;;;5019195;28;20060;-85
2022/07/10 07:07:48;;;;;;;1.70;0.68;;;;;;;;;;5024859;28;20056;-85
2022/07/10 07:10:15;;;;;;;2.90;1.17;;;;;;;;;;5020634;28;20053;-85
2022/07/10 07:12:42;;;;;;;2.00;0.70;;;;;;;;;;5031012;28;20068;-84
2022/07/10 07:15:09;;;;;;;2.42;0.50;;;;;;;;;;5024152;28;20092;-83
2022/07/10 07:17:56;;;;;;;2.65;0.70;;;;;;;;;;5016523;28;20046;-85
2022/07/10 07:23:13;;;;;;;2.22;0.63;;;;;;;;;;5051134;28;20048;-84
2022/07/10 07:25:47;;;;;;;3.60;0.55;;;;;;;;;;5037213;28;20099;-84
2022/07/10 07:28:18;;;;;;;;;;;;;;;;;;5037306;28;20421;-83
2022/07/10 07:30:46;;;;;;;2.88;0.60;;;;;;;;;;5037457;28;19921;-84
2022/07/10 07:33:13;;;;;;;2.25;0.65;;;;;;;;;;5036478;28;20077;-83
2022/07/10 07:35:40;;;;;;;1.70;0.60;;;;;;;;;;5037984;28;20045;-84
2022/07/10 07:38:08;;;;;;;3.28;0.70;;;;;;;;;;5037484;28;20131;-84
2022/07/10 07:40:37;;;;;;;2.50;0.50;;;;;;;;;;5036771;28;20462;-83
2022/07/10 07:43:04;;;;;;;2.58;0.73;;;;;;;;;;5036338;28;20409;-84
2022/07/10 07:45:32;;;;;;;8.27;0.70;;;;;;;;;;5036621;28;20044;-82
2022/07/10 07:47:59;;;;;;;3.92;1.00;;;;;;;;;;5037251;28;20045;-83
2022/07/10 07:50:28;;;;;;;3.88;0.60;;;;;;;;;;5037721;28;20049;-84
2022/07/10 07:52:56;;;;;;;1.55;0.50;;;;;;;;;;5037470;28;20056;-83
2022/07/10 07:55:23;;;;;;;1.58;0.47;;;;;;;;;;5036803;28;20053;-83
2022/07/10 07:57:54;;;;;;;4.20;0.80;;;;;;;;;;5037025;28;20071;-83
2022/07/10 08:00:24;;;;;;;3.53;0.60;;;;;;;;;;5057427;28;20049;-82
2022/07/10 08:02:52;;;;;;;2.65;1.35;;;;;;;;;;5041063;28;20115;-81
2022/07/10 08:05:20;;;;;;;8.45;6.65;;;;;;;;;;5058299;28;20067;-82
2022/07/10 08:07:50;;;;;;;1.73;1.27;;;;;;;;;;5040637;28;20111;-84
2022/07/10 08:10:18;;;;;;;2.40;1.77;;;;;;;;;;5040332;28;20501;-82
2022/07/10 08:12:46;;;;;;;2.60;1.35;;;;;;;;;;5058351;28;20041;-83
2022/07/10 08:15:16;;;;;;;54.20;3.90;;;;;;;;;;5040102;28;20049;-82
2022/07/10 08:17:43;;;;;;;38.83;2.97;;;;;;;;;;5039792;28;20444;-82
2022/07/10 08:20:12;;;;;;;3.83;0.70;;;;;;;;;;5040122;28;20059;-82
2022/07/10 08:22:39;;;;;;;1.08;0.55;;;;;;;;;;5058012;28;20056;-83
2022/07/10 08:25:07;;;;;;;2.70;0.80;;;;;;;;;;5040127;28;20053;-85
2022/07/10 08:27:34;;;;;;;9.30;1.10;;;;;;;;;;5059181;28;20045;-82
2022/07/10 08:30:01;;;;;;;2.20;0.40;;;;;;;;;;5041060;28;20052;-83
2022/07/10 08:32:29;;;;;;;3.40;0.70;;;;;;;;;;5041019;28;20079;-83
2022/07/10 08:34:56;;;;;;;4.65;0.80;;;;;;;;;;5041075;28;20165;-85
2022/07/10 08:37:23;;;;;;;3.50;0.40;;;;;;;;;;5041347;28;20553;-84
2022/07/10 08:39:51;;;;;;;2.20;0.47;;;;;;;;;;5041333;28;20102;-82
2022/07/10 08:42:18;;;;;;;2.85;0.60;;;;;;;;;;5041021;28;20052;-84
2022/07/10 08:44:46;;;;;;;2.70;0.77;;;;;;;;;;5041699;28;20061;-84
2022/07/10 08:47:13;;;;;;;2.88;0.60;;;;;;;;;;5041344;28;20045;-83
2022/07/10 08:49:46;;;;;;;3.10;0.40;;;;;;;;;;5040467;28;20053;-83
2022/07/10 08:52:16;;;;;;;1.88;0.40;;;;;;;;;;5058621;28;20051;-82
2022/07/10 08:54:44;;;;;;;1.98;0.40;;;;;;;;;;5057749;28;20045;-84
2022/07/10 08:57:16;;;;;;;2.78;0.55;;;;;;;;;;5040906;28;20069;-85
2022/07/10 08:59:43;;;;;;;1.73;0.43;;;;;;;;;;5041221;28;20045;-85
2022/07/10 09:02:10;;;;;;;1.63;0.50;;;;;;;;;;5042274;28;20460;-85
2022/07/10 09:04:38;;;;;;;2.28;0.40;;;;;;;;;;5041484;28;20100;-84
2022/07/10 09:07:05;;;;;;;1.88;0.50;;;;;;;;;;5041570;28;20076;-84
2022/07/10 09:09:50;;;;;;;1.98;0.40;;;;;;;;;;5059417;28;20057;-85
2022/07/10 09:12:18;;;;;;;2.67;0.40;;;;;;;;;;5040240;28;20083;-84
2022/07/10 09:14:45;;;;;;;4.28;0.40;;;;;;;;;;5041265;28;20402;-85
2022/07/10 09:17:12;;;;;;;5.97;0.88;;;;;;;;;;5059672;28;20461;-85
2022/07/10 09:19:39;;;;;;;1.38;0.40;;;;;;;;;;5043797;28;20441;-84
2022/07/10 09:22:08;;;;;;;0.70;0.40;;;;;;;;;;5052485;28;20053;-84
2022/07/10 09:24:45;;;;;;;1.42;0.57;;;;;;;;;;5057871;28;20106;-85
2022/07/10 09:27:14;;;;;;;0.82;0.30;;;;;;;;;;5054243;28;20059;-86
2022/07/10 09:29:47;;;;;;;0.68;0.20;;;;;;;;;;5059237;28;20056;-84
2022/07/10 09:32:15;;;;;;;2.13;0.60;;;;;;;;;;5057737;28;20041;-85
2022/07/10 09:36:04;;;;;;;0.85;0.30;;;;;;;;;;5062930;28;20045;-85
2022/07/10 09:37:37;;;;;;;;;;;;;;;;;;5064898;28;20161;-87
2022/07/10 09:40:05;;;;;;;3.55;0.60;;;;;;;;;;5056365;28;19921;-86
2022/07/10 09:42:39;;;;;;;1.88;0.52;;;;;;;;;;5062645;28;20049;-85
2022/07/10 09:45:12;;;;;;;1.02;0.40;;;;;;;;;;5057710;28;20049;-84
2022/07/10 09:47:40;;;;;;;2.10;0.57;;;;;;;;;;5066495;28;20056;-84
2022/07/10 09:50:21;;;;;;;0.65;0.35;;;;;;;;;;5062210;28;20429;-86
2022/07/10 09:52:56;;;;;;;1.60;0.25;;;;;;;;;;5065871;28;20067;-85
2022/07/10 09:55:26;;;;;;;2.83;0.47;;;;;;;;;;5071934;28;20346;-84
2022/07/10 09:58:03;;;;;;;1.55;0.30;;;;;;;;;;5064449;28;20045;-84
2022/07/10 10:00:31;;;;;;;1.95;0.30;;;;;;;;;;5056289;28;20094;-84
2022/07/10 10:03:00;;;;;;;3.22;0.50;;;;;;;;;;5049797;28;20053;-84
2022/07/10 10:05:38;;;;;;;1.98;0.60;;;;;;;;;;5056079;28;20053;-83
2022/07/10 10:08:10;;;;;;;1.80;0.50;;;;;;;;;;5050645;28;20049;-84
2022/07/10 10:10:38;;;;;;;3.85;0.50;;;;;;;;;;5056481;28;20049;-82
2022/07/10 10:13:09;;;;;;;2.00;0.30;;;;;;;;;;5050014;28;20174;-83
2022/07/10 10:15:37;;;;;;;2.15;0.77;;;;;;;;;;5055450;28;20067;-83
2022/07/10 10:18:05;;;;;;;4.03;0.60;;;;;;;;;;5051062;28;20086;-85
2022/07/10 10:20:41;;;;;;;0.70;0.40;;;;;;;;;;5055694;28;20040;-84
2022/07/10 10:23:27;;;;;;;1.13;0.40;;;;;;;;;;5019008;28;20061;-85
2022/07/10 10:25:58;;;;;;;4.30;0.47;;;;;;;;;;5038805;28;20095;-84
2022/07/10 10:28:26;;;;;;;1.10;0.40;;;;;;;;;;5037614;28;20097;-84
2022/07/10 10:30:58;;;;;;;1.42;0.50;;;;;;;;;;5037804;28;20087;-84
2022/07/10 10:33:37;;;;;;;1.23;0.40;;;;;;;;;;5020732;28;20045;-84
2022/07/10 10:36:13;;;;;;;1.77;0.40;;;;;;;;;;5038536;28;20045;-82
2022/07/10 10:38:55;;;;;;;7.18;1.13;;;;;;;;;;5020017;28;20050;-85
2022/07/10 10:41:26;;;;;;;4.68;0.52;;;;;;;;;;5021046;28;20055;-84
2022/07/10 10:44:13;;;;;;;0.95;0.45;;;;;;;;;;5022836;28;20072;-85
2022/07/10 10:47:06;;;;;;;0.95;0.25;;;;;;;;;;5020194;28;20045;-86
2022/07/10 10:50:03;;;;;;;1.45;0.30;;;;;;;;;;5028099;28;20049;-84
2022/07/10 10:52:31;;;;;;;15.95;1.13;;;;;;;;;;5019468;28;20045;-85
2022/07/10 10:55:07;;;;;;;1.83;0.32;;;;;;;;;;5018293;28;20057;-85
2022/07/10 10:57:39;;;;;;;2.00;0.47;;;;;;;;;;5017169;28;20046;-85
2022/07/10 11:00:08;;;;;;;2.30;0.50;;;;;;;;;;5018242;28;20103;-87
2022/07/10 11:02:37;;;;;;;2.72;0.50;;;;;;;;;;5017688;28;20414;-85
2022/07/10 11:05:14;;;;;;;1.80;0.47;;;;;;;;;;5018661;28;20049;-87
2022/07/10 11:07:54;;;;;;;0.80;0.38;;;;;;;;;;5018807;28;20404;-85
2022/07/10 11:10:31;;;;;;;0.88;0.38;;;;;;;;;;5017087;28;20107;-86
2022/07/10 11:13:00;;;;;;;2.42;0.60;;;;;;;;;;5017997;28;20081;-85
2022/07/10 11:15:32;;;;;;;2.00;0.70;;;;;;;;;;5017768;28;20128;-85
2022/07/10 11:18:04;;;;;;;0.93;0.40;;;;;;;;;;5034795;28;20050;-86
2022/07/10 11:20:32;;;;;;;2.63;0.68;;;;;;;;;;5017090;28;20050;-86
2022/07/10 11:23:00;;;;;;;4.88;0.60;;;;;;;;;;5016330;28;20053;-86
2022/07/10 11:25:50;;;;;;;3.10;0.50;;;;;;;;;;5016794;28;20525;-86
2022/07/10 11:28:26;;;;;;;14.02;1.00;;;;;;;;;;5035379;28;20056;-84
2022/07/10 11:30:58;;;;;;;1.20;0.30;;;;;;;;;;5017056;28;20096;-85
2022/07/10 11:33:28;;;;;;;1.55;0.30;;;;;;;;;;5017630;28;20037;-84
2022/07/10 11:35:55;;;;;;;2.38;0.30;;;;;;;;;;5019634;28;20049;-84
2022/07/10 11:38:24;;;;;;;2.88;0.68;;;;;;;;;;5021244;28;20491;-87
2022/07/10 11:40:53;;;;;;;3.95;0.82;;;;;;;;;;5020695;28;20079;-86
2022/07/10 11:43:25;;;;;;;1.45;0.40;;;;;;;;;;5020661;28;20060;-84
2022/07/10 11:46:03;;;;;;;2.95;0.32;;;;;;;;;;5020927;28;20501;-86
2022/07/10 11:48:42;;;;;;;1.75;0.80;;;;;;;;;;5022002;28;20132;-84
2022/07/10 11:51:27;;;;;;;1.27;0.50;;;;;;;;;;5020221;28;20060;-85
2022/07/10 11:54:06;;;;;;;1.95;0.47;;;;;;;;;;5020954;28;20063;-85
2022/07/10 11:56:34;;;;;;;1.52;0.50;;;;;;;;;;5021036;28;20410;-87
2022/07/10 11:59:11;;;;;;;3.60;0.40;;;;;;;;;;5021495;28;20115;-85
2022/07/10 12:01:43;;;;;;;1.30;0.50;;;;;;;;;;5022665;28;20057;-84
2022/07/10 12:04:15;;;;;;;0.60;0.30;;;;;;;;;;5022121;28;20572;-87
2022/07/10 12:06:44;;;;;;;2.30;0.50;;;;;;;;;;5020868;28;20060;-86
2022/07/10 12:09:14;;;;;;;1.58;0.30;;;;;;;;;;5020895;28;20092;-85
2022/07/10 12:11:45;;;;;;;1.15;0.43;;;;;;;;;;5020540;28;20512;-86
2022/07/10 12:14:19;;;;;;;2.35;0.52;;;;;;;;;;5039798;28;20121;-84
2022/07/10 12:16:47;;;;;;;7.38;0.75;;;;;;;;;;5025091;28;20445;-85
2022/07/10 12:19:19;;;;;;;1.10;0.50;;;;;;;;;;5021536;28;20053;-84
2022/07/10 12:21:48;;;;;;;0.88;0.40;;;;;;;;;;5021128;28;20045;-85
2022/07/10 12:24:20;;;;;;;2.35;0.50;;;;;;;;;;5021483;28;20132;-85
2022/07/10 12:26:48;;;;;;;1.25;0.50;;;;;;;;;;5019720;28;20045;-86
2022/07/10 12:29:19;;;;;;;11.10;0.88;;;;;;;;;;5019892;28;20418;-86
2022/07/10 12:31:49;;;;;;;3.08;0.43;;;;;;;;;;5022372;28;20450;-85
2022/07/10 12:34:17;;;;;;;1.90;0.47;;;;;;;;;;5019699;28;20049;-87
2022/07/10 12:36:54;;;;;;;1.92;0.60;;;;;;;;;;5020295;28;20069;-86
2022/07/10 12:39:22;;;;;;;1.25;0.38;;;;;;;;;;5019608;28;20407;-85
2022/07/10 12:41:56;;;;;;;1.95;0.40;;;;;;;;;;5020377;28;20049;-86
2022/07/10 12:44:32;;;;;;;1.88;0.57;;;;;;;;;;5022181;28;20050;-83
2022/07/10 12:47:11;;;;;;;1.88;0.35;;;;;;;;;;5037443;28;20115;-85
2022/07/10 12:49:51;;;;;;;1.10;0.30;;;;;;;;;;5018370;28;20049;-88
2022/07/10 12:52:21;;;;;;;3.88;0.88;;;;;;;;;;5017795;28;20053;-85
2022/07/10 12:55:10;;;;;;;0.52;0.30;;;;;;;;;;5019099;28;20046;-87
2022/07/10 12:57:54;;;;;;;2.72;0.50;;;;;;;;;;5018138;28;20046;-86
2022/07/10 13:00:25;;;;;;;1.65;0.50;;;;;;;;;;5018037;28;20084;-88
2022/07/10 13:03:01;;;;;;;1.55;0.57;;;;;;;;;;5017570;28;20107;-86
2022/07/10 13:05:38;;;;;;;1.20;0.40;;;;;;;;;;5035273;28;20056;-88
2022/07/10 13:08:16;;;;;;;2.50;0.60;;;;;;;;;;5017424;28;20522;-86
2022/07/10 13:10:44;;;;;;;1.25;0.30;;;;;;;;;;5017817;28;20049;-86
2022/07/10 13:13:11;;;;;;;1.30;0.40;;;;;;;;;;5017203;28;20042;-86
2022/07/10 13:15:46;;;;;;;2.08;0.50;;;;;;;;;;5035058;28;20057;-89
2022/07/10 13:18:21;;;;;;;3.25;0.98;;;;;;;;;;5017586;28;20045;-87
2022/07/10 13:20:49;;;;;;;1.30;0.50;;;;;;;;;;5017720;28;20494;-87
2022/07/10 13:23:22;;;;;;;1.67;0.52;;;;;;;;;;5018498;28;20080;-86
2022/07/10 13:25:50;;;;;;;5.65;0.30;;;;;;;;;;5017871;28;20049;-86
2022/07/10 13:28:17;;;;;;;2.85;0.70;;;;;;;;;;5018721;28;20053;-86
2022/07/10 13:30:44;;;;;;;2.83;0.60;;;;;;;;;;5035398;28;20049;-87
2022/07/10 13:33:11;;;;;;;2.88;0.60;;;;;;;;;;5017492;28;20045;-85
2022/07/10 13:35:39;;;;;;;1.15;0.50;;;;;;;;;;5017535;28;20045;-86
2022/07/10 13:38:06;;;;;;;1.55;0.40;;;;;;;;;;5017063;28;20096;-87
2022/07/10 13:40:41;;;;;;;1.73;0.75;;;;;;;;;;5018475;28;20053;-87
2022/07/10 13:43:08;;;;;;;1.48;0.60;;;;;;;;;;5017217;28;20053;-86
2022/07/10 13:45:38;;;;;;;1.30;0.43;;;;;;;;;;5017015;28;20461;-87
2022/07/10 13:48:06;;;;;;;1.10;0.30;;;;;;;;;;5017907;28;20498;-87
2022/07/10 13:50:33;;;;;;;1.30;0.40;;;;;;;;;;5019778;28;20099;-88
2022/07/10 13:53:00;;;;;;;1.42;0.30;;;;;;;;;;5022172;28;20053;-85
2022/07/10 13:55:28;;;;;;;1.38;0.30;;;;;;;;;;5017276;28;20112;-87
2022/07/10 13:57:57;;;;;;;0.98;0.40;;;;;;;;;;5033887;28;20057;-86
2022/07/10 14:00:24;;;;;;;1.85;0.80;;;;;;;;;;5016871;28;20077;-86
2022/07/10 14:02:51;;;;;;;0.70;0.35;;;;;;;;;;5016634;28;20069;-87
2022/07/10 14:05:22;;;;;;;2.47;0.30;;;;;;;;;;5016586;28;20053;-88
2022/07/10 14:07:57;;;;;;;1.95;0.57;;;;;;;;;;5016461;28;20054;-87
2022/07/10 14:10:24;;;;;;;2.50;0.50;;;;;;;;;;5016431;28;20055;-87
2022/07/10 14:12:54;;;;;;;0.98;0.30;;;;;;;;;;5016157;28;20494;-87
2022/07/10 14:15:22;;;;;;;2.65;0.40;;;;;;;;;;5016233;28;20454;-86
2022/07/10 14:17:51;;;;;;;2.30;0.45;;;;;;;;;;5033731;28;20056;-86
2022/07/10 14:20:25;;;;;;;1.40;0.40;;;;;;;;;;5016394;28;20050;-87
2022/07/10 14:22:56;;;;;;;1.15;0.45;;;;;;;;;;5016385;28;20417;-87
2022/07/10 14:25:28;;;;;;;2.22;0.50;;;;;;;;;;5017097;28;20128;-87
2022/07/10 14:27:55;;;;;;;4.07;0.50;;;;;;;;;;5016261;28;20053;-87
2022/07/10 14:30:22;;;;;;;3.47;0.50;;;;;;;;;;5016522;28;20509;-89
2022/07/10 14:32:50;;;;;;;1.88;0.45;;;;;;;;;;5016188;28;20124;-88
2022/07/10 14:35:17;;;;;;;1.65;0.32;;;;;;;;;;5016177;28;20053;-88
2022/07/10 14:37:46;;;;;;;3.30;0.80;;;;;;;;;;5016368;28;20388;-87
2022/07/10 14:40:14;;;;;;;1.83;0.40;;;;;;;;;;5015956;28;20046;-88
2022/07/10 14:42:41;;;;;;;1.95;0.47;;;;;;;;;;5016230;28;20049;-86
2022/07/10 14:45:09;;;;;;;1.08;0.28;;;;;;;;;;5016003;28;20503;-88
2022/07/10 14:47:57;;;;;;;2.75;0.57;;;;;;;;;;5032095;28;20125;-85
2022/07/10 14:50:25;;;;;;;2.42;0.50;;;;;;;;;;5033786;28;20045;-85
2022/07/10 14:52:52;;;;;;;1.70;0.40;;;;;;;;;;5017478;28;20045;-85
2022/07/10 14:55:20;;;;;;;1.27;0.70;;;;;;;;;;5017356;28;20049;-86
2022/07/10 14:57:48;;;;;;;1.75;0.68;;;;;;;;;;5018441;28;20060;-86
2022/07/10 15:00:18;;;;;;;0.82;0.38;;;;;;;;;;5019414;28;20493;-85
2022/07/10 15:02:45;;;;;;;1.42;0.43;;;;;;;;;;5017870;28;20045;-85
2022/07/10 15:05:13;;;;;;;2.67;0.50;;;;;;;;;;5017948;28;20041;-87